Aviation Digital Data Service (ADDS)

Output produced by METARs form (1636 UTC 03 July 2020)
found at http://aviationweather.gov/metar/data/
 
METAR text: KAUN 031615Z AUTO 18003KT 10SM CLR 22/09 A3002 RMK A01
Conditions at: KAUN (AUBURN MUNI , CA, US) observed 1615 UTC 03 July 2020
Temperature: 22.0°C (72°F)
Dewpoint: 9.0°C (48°F) [RH = 43%]
Pressure (altimeter): 30.02 inches Hg (1016.7 mb)
Winds: from the S (180 degrees) at 3 MPH (3 knots; 1.5 m/s)
Visibility: 10 or more miles (16+ km)
Ceiling: at least 12,000 feet AGL
Clouds: sky clear below 12,000 feet AGL
Weather: automated observation with no human augmentation;
there may or may not be significant weather present at this time